createdAt,value
2023-04-20T00:01:10.919Z,2.15
2023-04-20T00:03:38.272Z,3.08
2023-04-20T00:06:05.862Z,3.50
2023-04-20T00:08:33.021Z,5.43
2023-04-20T00:10:59.842Z,8.27
2023-04-20T00:13:26.917Z,4.93
2023-04-20T00:15:53.936Z,6.30
2023-04-20T00:18:21.105Z,3.47
2023-04-20T00:20:48.025Z,3.65
2023-04-20T00:23:15.233Z,3.55
2023-04-20T00:25:42.313Z,2.70
2023-04-20T00:28:09.194Z,4.57
2023-04-20T00:30:36.217Z,3.17
2023-04-20T00:33:04.320Z,3.03
2023-04-20T00:35:31.260Z,4.00
2023-04-20T00:37:58.048Z,3.20
2023-04-20T00:40:25.994Z,2.88
2023-04-20T00:42:52.912Z,2.38
2023-04-20T00:45:22.161Z,3.63
2023-04-20T00:47:49.258Z,4.07
2023-04-20T00:50:16.219Z,5.55
2023-04-20T00:52:43.192Z,5.20
2023-04-20T00:55:10.894Z,3.30
2023-04-20T00:57:38.574Z,2.70
2023-04-20T01:00:07.415Z,5.88
2023-04-20T01:02:34.375Z,5.28
2023-04-20T01:05:01.783Z,4.25
2023-04-20T01:07:30.271Z,4.22
2023-04-20T01:09:57.308Z,3.83
2023-04-20T01:12:24.154Z,3.53
2023-04-20T01:14:51.200Z,3.30
2023-04-20T01:17:20.282Z,4.72
2023-04-20T01:19:47.363Z,3.45
2023-04-20T01:22:18.678Z,3.25
2023-04-20T01:24:46.055Z,3.63
2023-04-20T01:27:14.605Z,2.78
2023-04-20T01:29:41.481Z,3.90
2023-04-20T01:32:10.158Z,6.75
2023-04-20T01:34:37.279Z,5.20
2023-04-20T01:37:08.232Z,6.15
2023-04-20T01:39:39.306Z,2.70
2023-04-20T01:42:06.458Z,6.18
2023-04-20T01:44:33.343Z,3.65
2023-04-20T01:47:00.508Z,3.22
2023-04-20T01:49:27.723Z,5.38
2023-04-20T01:51:55.678Z,4.70
2023-04-20T01:54:22.917Z,3.85
2023-04-20T01:56:49.748Z,5.70
2023-04-20T01:59:16.892Z,3.58
2023-04-20T02:01:43.888Z,4.70
2023-04-20T02:08:17.346Z,3.13
2023-04-20T02:10:44.174Z,5.70
2023-04-20T02:13:11.689Z,4.15
2023-04-20T02:15:38.542Z,3.33
2023-04-20T02:18:05.686Z,4.75
2023-04-20T02:20:32.874Z,4.93
2023-04-20T02:22:59.746Z,7.03
2023-04-20T02:25:27.957Z,3.90
2023-04-20T02:27:54.987Z,5.30
2023-04-20T02:30:22.503Z,3.53
2023-04-20T02:32:49.408Z,5.13
2023-04-20T02:35:16.384Z,6.25
2023-04-20T02:37:44.413Z,5.90
2023-04-20T02:40:12.595Z,5.55
2023-04-20T02:42:39.680Z,5.25
2023-04-20T02:45:09.888Z,5.53
2023-04-20T02:47:37.479Z,3.70
2023-04-20T02:50:05.015Z,4.20
2023-04-20T02:55:06.667Z,6.03
2023-04-20T02:57:33.678Z,4.57
2023-04-20T03:00:01.535Z,3.15
2023-04-20T03:02:40.366Z,3.97
2023-04-20T03:05:08.045Z,3.97
2023-04-20T03:10:11.709Z,5.80
2023-04-20T03:12:51.590Z,4.03
2023-04-20T03:15:24.553Z,3.33
2023-04-20T03:18:13.698Z,4.57
2023-04-20T03:20:40.619Z,6.25
2023-04-20T03:23:07.638Z,5.13
2023-04-20T03:25:36.142Z,4.78
2023-04-20T03:28:08.097Z,6.15
2023-04-20T03:30:35.822Z,7.70
2023-04-20T03:33:07.852Z,6.05
2023-04-20T03:35:34.845Z,4.95
2023-04-20T03:38:01.729Z,4.03
2023-04-20T03:40:28.667Z,3.40
2023-04-20T03:42:56.102Z,4.38
2023-04-20T03:45:22.936Z,4.13
2023-04-20T03:47:49.923Z,4.70
2023-04-20T03:50:16.975Z,4.07
2023-04-20T03:52:43.852Z,4.32
2023-04-20T03:55:11.734Z,6.93
2023-04-20T03:57:45.683Z,4.38
2023-04-20T04:00:14.170Z,4.38
2023-04-20T04:02:47.183Z,5.78
2023-04-20T04:05:19.460Z,5.30
2023-04-20T04:07:49.372Z,8.70
2023-04-20T04:10:18.901Z,5.07
2023-04-20T04:12:46.205Z,3.35
2023-04-20T04:15:13.592Z,7.22
2023-04-20T04:17:48.926Z,6.30
2023-04-20T04:20:16.214Z,4.60
2023-04-20T04:22:43.568Z,5.25
2023-04-20T04:25:30.210Z,4.63
2023-04-20T04:27:58.308Z,6.68
2023-04-20T04:30:27.591Z,3.38
2023-04-20T04:32:55.629Z,4.43
2023-04-20T04:35:23.129Z,4.60
2023-04-20T04:37:52.697Z,3.28
2023-04-20T04:40:20.328Z,4.28
2023-04-20T04:42:49.730Z,4.32
2023-04-20T04:45:18.497Z,3.63
2023-04-20T04:47:46.435Z,5.70
2023-04-20T04:50:13.688Z,6.07
2023-04-20T04:52:40.594Z,6.65
2023-04-20T04:55:09.582Z,4.70
2023-04-20T04:57:39.281Z,5.70
2023-04-20T05:00:09.701Z,4.47
2023-04-20T05:02:37.189Z,4.13
2023-04-20T05:05:32.301Z,5.63
2023-04-20T05:08:08.131Z,6.15
2023-04-20T05:14:48.151Z,3.83
2023-04-20T05:17:15.349Z,5.90
2023-04-20T05:19:42.597Z,7.45
2023-04-20T05:22:10.056Z,7.53
2023-04-20T05:24:36.937Z,4.43
2023-04-20T05:27:04.378Z,4.50
2023-04-20T05:29:31.353Z,8.45
2023-04-20T05:34:24.964Z,3.75
2023-04-20T05:36:52.834Z,3.92
2023-04-20T05:39:20.004Z,4.93
2023-04-20T05:41:47.622Z,7.68
2023-04-20T05:44:14.437Z,6.55
2023-04-20T05:46:41.514Z,5.97
2023-04-20T05:49:08.453Z,8.13
2023-04-20T05:51:35.469Z,5.15
2023-04-20T05:54:02.686Z,7.00
2023-04-20T05:56:29.537Z,7.20
2023-04-20T05:58:56.979Z,5.90
2023-04-20T06:01:23.841Z,5.65
2023-04-20T06:03:51.024Z,4.45
2023-04-20T06:06:18.016Z,4.25
2023-04-20T06:08:45.160Z,5.03
2023-04-20T06:11:12.511Z,3.88
2023-04-20T06:13:40.015Z,5.35
2023-04-20T06:16:10.173Z,6.45
2023-04-20T06:18:38.171Z,6.35
2023-04-20T06:21:05.166Z,4.82
2023-04-20T06:23:32.021Z,3.47
2023-04-20T06:25:58.885Z,7.07
2023-04-20T06:28:26.011Z,5.90
2023-04-20T06:30:52.875Z,5.38
2023-04-20T06:33:19.827Z,4.50
2023-04-20T06:35:46.809Z,5.10
2023-04-20T06:38:13.827Z,7.45
2023-04-20T06:40:40.674Z,8.27
2023-04-20T06:43:07.527Z,5.10
2023-04-20T06:45:34.510Z,6.20
2023-04-20T06:48:01.493Z,5.85
2023-04-20T06:50:28.476Z,4.28
2023-04-20T06:52:55.489Z,6.53
2023-04-20T06:55:22.392Z,5.70
2023-04-20T06:57:49.268Z,8.95
2023-04-20T07:00:16.743Z,5.28
2023-04-20T07:02:50.775Z,5.35
2023-04-20T07:05:18.666Z,6.88
2023-04-20T07:07:45.684Z,5.90
2023-04-20T07:10:14.042Z,6.65
2023-04-20T07:12:43.516Z,5.57
2023-04-20T07:15:10.929Z,4.43
2023-04-20T07:17:37.912Z,6.07
2023-04-20T07:20:08.733Z,7.32
2023-04-20T07:22:36.440Z,7.13
2023-04-20T07:25:05.488Z,7.85
2023-04-20T07:27:36.571Z,6.00
2023-04-20T07:30:06.216Z,9.20
2023-04-20T07:32:36.595Z,8.82
2023-04-20T07:35:04.473Z,9.68
2023-04-20T07:37:32.435Z,5.85
2023-04-20T07:39:59.390Z,5.43
2023-04-20T07:42:26.402Z,6.40
2023-04-20T07:44:53.309Z,5.70
2023-04-20T07:47:20.256Z,7.72
2023-04-20T07:49:47.134Z,3.45
2023-04-20T07:52:17.174Z,8.13
2023-04-20T07:54:47.479Z,3.92
2023-04-20T07:57:15.307Z,6.55
2023-04-20T07:59:42.611Z,5.82
2023-04-20T08:02:10.112Z,6.13
2023-04-20T08:04:40.624Z,6.57
2023-04-20T08:07:07.739Z,4.57
2023-04-20T08:09:34.608Z,6.80
2023-04-20T08:12:01.797Z,4.57
2023-04-20T08:14:28.860Z,8.18
2023-04-20T08:16:55.952Z,4.50
2023-04-20T08:19:23.279Z,6.05
2023-04-20T08:21:52.016Z,4.75
2023-04-20T08:24:20.841Z,11.00
2023-04-20T08:26:48.110Z,6.05
2023-04-20T08:29:15.462Z,6.97
2023-04-20T08:31:42.518Z,5.18
2023-04-20T08:34:09.499Z,5.72
2023-04-20T08:36:36.595Z,5.45
2023-04-20T08:39:09.353Z,4.22
2023-04-20T08:41:36.986Z,4.38
2023-04-20T08:44:04.486Z,3.47
2023-04-20T08:46:33.252Z,4.55
2023-04-20T08:49:04.704Z,5.40
2023-04-20T08:51:33.040Z,5.47
2023-04-20T08:54:06.021Z,5.82
2023-04-20T08:56:44.569Z,6.05
2023-04-20T08:59:14.122Z,5.18
2023-04-20T09:01:42.968Z,5.25
2023-04-20T09:04:21.958Z,5.90
2023-04-20T09:06:51.527Z,4.20
2023-04-20T09:09:19.793Z,6.05
2023-04-20T09:11:47.768Z,5.60
2023-04-20T09:14:17.026Z,5.05
2023-04-20T09:16:54.459Z,5.13
2023-04-20T09:19:23.177Z,4.43
2023-04-20T09:21:51.883Z,4.85
2023-04-20T09:24:21.470Z,5.22
2023-04-20T09:26:48.511Z,6.68
2023-04-20T09:29:24.077Z,4.40
2023-04-20T09:31:51.848Z,5.38
2023-04-20T09:34:19.689Z,5.50
2023-04-20T09:36:51.691Z,6.47
2023-04-20T09:39:20.674Z,4.07
2023-04-20T09:41:48.593Z,5.25
2023-04-20T09:44:17.571Z,4.43
2023-04-20T09:46:45.425Z,4.78
2023-04-20T09:49:14.032Z,3.20
2023-04-20T09:51:45.227Z,4.53
2023-04-20T09:54:13.220Z,4.38
2023-04-20T09:56:41.217Z,5.32
2023-04-20T09:59:08.280Z,4.78
2023-04-20T10:01:37.498Z,4.90
2023-04-20T10:04:09.842Z,3.83
2023-04-20T10:06:37.876Z,5.20
2023-04-20T10:09:07.925Z,4.32
2023-04-20T10:11:52.399Z,5.78
2023-04-20T10:14:23.402Z,4.57
2023-04-20T10:17:01.136Z,3.95
2023-04-20T10:19:45.062Z,6.93
2023-04-20T10:22:25.512Z,6.65
2023-04-20T10:24:53.547Z,3.95
2023-04-20T10:27:22.169Z,7.03
2023-04-20T10:29:49.378Z,5.18
2023-04-20T10:32:29.186Z,4.68
2023-04-20T10:35:11.099Z,3.60
2023-04-20T10:37:51.592Z,3.63
2023-04-20T10:40:27.119Z,2.88
2023-04-20T10:42:54.069Z,2.95
2023-04-20T10:45:21.985Z,4.80
2023-04-20T10:47:49.027Z,2.60
2023-04-20T10:50:18.173Z,3.35
2023-04-20T10:52:45.212Z,5.72
2023-04-20T10:55:23.923Z,4.32
2023-04-20T10:57:51.391Z,5.30
2023-04-20T11:00:20.449Z,3.60
2023-04-20T11:02:57.704Z,4.65
2023-04-20T11:05:30.160Z,3.88
2023-04-20T11:07:59.161Z,3.28
2023-04-20T11:10:38.759Z,2.40
2023-04-20T11:13:06.096Z,3.75
2023-04-20T11:15:34.089Z,3.15
2023-04-20T11:18:12.102Z,4.07
2023-04-20T11:20:55.891Z,2.95
2023-04-20T11:23:24.708Z,3.03
2023-04-20T11:25:57.908Z,2.83
2023-04-20T11:28:30.369Z,2.70
2023-04-20T11:30:57.207Z,3.33
2023-04-20T11:33:28.391Z,3.60
2023-04-20T11:35:57.108Z,3.67
2023-04-20T11:38:31.697Z,3.05
2023-04-20T11:41:04.366Z,2.80
2023-04-20T11:43:32.289Z,2.80
2023-04-20T11:46:01.094Z,3.22
2023-04-20T11:48:31.445Z,3.63
2023-04-20T11:50:58.782Z,3.35
2023-04-20T11:53:25.871Z,4.82
2023-04-20T11:55:52.667Z,4.28
2023-04-20T11:58:19.705Z,4.13
2023-04-20T12:00:46.536Z,6.18
2023-04-20T12:03:13.479Z,5.00
2023-04-20T12:05:40.666Z,3.47
2023-04-20T12:08:08.268Z,3.85
2023-04-20T12:10:35.333Z,5.28
2023-04-20T12:13:02.211Z,2.63
2023-04-20T12:15:29.034Z,2.97
2023-04-20T12:17:55.886Z,4.38
2023-04-20T12:20:23.307Z,3.35
2023-04-20T12:22:50.321Z,2.50
2023-04-20T12:25:17.316Z,2.67
2023-04-20T12:27:44.204Z,2.65
2023-04-20T12:30:11.896Z,3.38
2023-04-20T12:32:39.610Z,2.72
2023-04-20T12:35:08.523Z,2.70
2023-04-20T12:37:35.606Z,3.70
2023-04-20T12:40:02.489Z,2.60
2023-04-20T12:42:29.456Z,2.70
2023-04-20T12:44:56.301Z,3.03
2023-04-20T12:47:23.148Z,2.70
2023-04-20T12:49:50.194Z,2.65
2023-04-20T12:52:17.059Z,2.58
2023-04-20T12:54:44.372Z,2.70
2023-04-20T12:57:11.341Z,3.15
2023-04-20T12:59:38.164Z,2.60
2023-04-20T13:02:05.069Z,2.78
2023-04-20T13:04:32.079Z,3.60
2023-04-20T13:06:58.983Z,2.67
2023-04-20T13:09:27.211Z,1.95
2023-04-20T13:11:54.404Z,2.97
2023-04-20T13:14:21.485Z,2.45
2023-04-20T13:16:48.783Z,2.08
2023-04-20T13:19:15.772Z,2.85
2023-04-20T13:21:42.604Z,2.67
2023-04-20T13:24:09.628Z,2.53
2023-04-20T13:26:37.176Z,2.33
2023-04-20T13:29:04.079Z,2.40
2023-04-20T13:31:32.147Z,2.70
2023-04-20T13:33:59.212Z,2.90
2023-04-20T13:36:28.183Z,2.58
2023-04-20T13:38:55.922Z,2.50
2023-04-20T13:41:23.726Z,4.03
2023-04-20T13:43:50.896Z,3.35
2023-04-20T13:46:19.979Z,3.63
2023-04-20T13:48:46.936Z,2.30
2023-04-20T13:51:14.190Z,2.83
2023-04-20T13:53:41.283Z,3.67
2023-04-20T13:56:08.343Z,2.40
2023-04-20T13:58:35.202Z,2.63
2023-04-20T14:01:08.739Z,2.40
2023-04-20T14:03:35.842Z,2.90
2023-04-20T14:06:03.738Z,3.20
2023-04-20T14:08:31.068Z,3.10
2023-04-20T14:10:58.045Z,2.42
2023-04-20T14:13:25.497Z,4.70
2023-04-20T14:15:54.024Z,4.38
2023-04-20T14:18:20.973Z,3.67
2023-04-20T14:20:52.234Z,2.60
2023-04-20T14:23:19.673Z,2.40
2023-04-20T14:25:46.957Z,2.20
2023-04-20T14:28:16.757Z,3.28
2023-04-20T14:30:47.217Z,3.00
2023-04-20T14:33:14.198Z,3.10
2023-04-20T14:35:41.259Z,4.60
2023-04-20T14:38:08.194Z,3.00
2023-04-20T14:40:35.076Z,2.30
2023-04-20T14:43:03.313Z,3.38
2023-04-20T14:45:30.295Z,2.90
2023-04-20T14:48:00.495Z,3.80
2023-04-20T14:50:28.603Z,2.72
2023-04-20T14:52:58.124Z,3.83
2023-04-20T14:55:26.110Z,6.22
2023-04-20T14:57:55.551Z,3.25
2023-04-20T15:00:23.964Z,2.70
2023-04-20T15:02:51.728Z,2.30
2023-04-20T15:05:18.887Z,3.13
2023-04-20T15:07:46.138Z,2.30
2023-04-20T15:10:13.169Z,2.35
2023-04-20T15:12:40.981Z,2.85
2023-04-20T15:15:08.679Z,2.80
2023-04-20T15:17:36.961Z,2.58
2023-04-20T15:20:04.725Z,3.22
2023-04-20T15:22:35.818Z,2.85
2023-04-20T15:25:05.780Z,2.83
2023-04-20T15:27:33.966Z,3.67
2023-04-20T15:30:01.194Z,2.60
2023-04-20T15:32:30.235Z,2.95
2023-04-20T15:34:57.147Z,2.65
2023-04-20T15:37:24.017Z,2.80
2023-04-20T15:39:51.478Z,3.05
2023-04-20T15:42:18.954Z,3.88
2023-04-20T15:44:46.236Z,2.50
2023-04-20T15:47:13.134Z,2.65
2023-04-20T15:49:40.763Z,4.75
2023-04-20T15:52:10.678Z,4.60
2023-04-20T15:54:40.714Z,4.68
2023-04-20T15:57:07.865Z,4.45
2023-04-20T15:59:34.718Z,2.88
2023-04-20T16:02:01.716Z,4.05
2023-04-20T16:04:28.639Z,3.10
2023-04-20T16:06:55.702Z,4.47
2023-04-20T16:09:23.760Z,3.75
2023-04-20T16:11:51.016Z,3.42
2023-04-20T16:14:18.355Z,3.58
2023-04-20T16:16:45.478Z,4.25
2023-04-20T16:19:14.675Z,4.65
2023-04-20T16:21:41.720Z,3.53
2023-04-20T16:24:08.554Z,6.40
2023-04-20T16:26:36.461Z,3.03
2023-04-20T16:29:03.595Z,3.20
2023-04-20T16:31:31.264Z,4.07
2023-04-20T16:33:58.863Z,3.60
2023-04-20T16:36:26.738Z,3.47
2023-04-20T16:38:53.755Z,3.42
2023-04-20T16:41:20.818Z,3.75
2023-04-20T16:43:47.781Z,3.25
2023-04-20T16:46:16.408Z,3.20
2023-04-20T16:48:43.350Z,3.20
2023-04-20T16:51:10.260Z,2.95
2023-04-20T16:53:37.087Z,4.68
2023-04-20T16:56:03.948Z,3.50
2023-04-20T16:58:31.492Z,2.80
2023-04-20T17:00:58.569Z,3.25
2023-04-20T17:03:25.692Z,2.30
2023-04-20T17:05:52.717Z,2.78
2023-04-20T17:08:20.616Z,3.22
2023-04-20T17:10:47.834Z,3.20
2023-04-20T17:13:14.666Z,3.47
2023-04-20T17:15:42.776Z,3.50
2023-04-20T17:18:09.734Z,3.35
2023-04-20T17:20:36.581Z,3.97
2023-04-20T17:23:03.455Z,3.50
2023-04-20T17:25:30.274Z,3.40
2023-04-20T17:27:57.161Z,2.97
2023-04-20T17:30:24.043Z,3.60
2023-04-20T17:32:53.944Z,3.20
2023-04-20T17:35:20.913Z,3.42
2023-04-20T17:37:48.663Z,4.40
2023-04-20T17:40:15.487Z,3.75
2023-04-20T17:42:42.461Z,3.03
2023-04-20T17:45:09.742Z,3.00
2023-04-20T17:47:36.593Z,3.35
2023-04-20T17:50:04.728Z,3.22
2023-04-20T17:52:31.928Z,3.30
2023-04-20T17:55:00.134Z,3.10
2023-04-20T17:57:27.036Z,3.10
2023-04-20T17:59:53.967Z,3.28
2023-04-20T18:02:20.820Z,2.90
2023-04-20T18:04:47.991Z,3.13
2023-04-20T18:07:16.893Z,2.67
2023-04-20T18:09:43.831Z,3.00
2023-04-20T18:12:11.431Z,2.92
2023-04-20T18:14:40.823Z,3.20
2023-04-20T18:17:07.771Z,2.88
2023-04-20T18:19:34.602Z,3.72
2023-04-20T18:22:01.504Z,3.33
2023-04-20T18:24:28.369Z,3.15
2023-04-20T18:26:55.353Z,2.92
2023-04-20T18:29:22.418Z,4.50
2023-04-20T18:31:50.290Z,3.38
2023-04-20T18:34:17.451Z,3.33
2023-04-20T18:36:44.618Z,3.55
2023-04-20T18:39:11.726Z,3.42
2023-04-20T18:41:38.586Z,3.63
2023-04-20T18:44:05.697Z,3.47
2023-04-20T18:46:32.624Z,3.15
2023-04-20T18:48:59.562Z,6.43
2023-04-20T18:51:27.623Z,4.32
2023-04-20T18:53:54.723Z,4.43
2023-04-20T18:56:21.542Z,4.00
2023-04-20T18:58:48.364Z,4.32
2023-04-20T19:01:15.429Z,4.45
2023-04-20T19:03:46.274Z,3.90
2023-04-20T19:06:14.642Z,4.40
2023-04-20T19:08:41.454Z,4.35
2023-04-20T19:11:08.240Z,4.05
2023-04-20T19:13:35.037Z,3.65
2023-04-20T19:16:01.976Z,4.13
2023-04-20T19:18:28.845Z,4.10
2023-04-20T19:20:55.870Z,4.30
2023-04-20T19:23:22.767Z,4.88
2023-04-20T19:25:49.852Z,3.60
2023-04-20T19:28:16.769Z,4.05
2023-04-20T19:30:43.700Z,3.90
2023-04-20T19:33:10.852Z,4.20
2023-04-20T19:35:37.895Z,4.05
2023-04-20T19:38:04.810Z,4.50
2023-04-20T19:40:31.772Z,4.47
2023-04-20T19:42:58.602Z,4.50
2023-04-20T19:45:25.410Z,3.42
2023-04-20T19:47:52.392Z,4.03
2023-04-20T19:50:19.280Z,3.67
2023-04-20T19:52:46.207Z,3.88
2023-04-20T19:55:13.205Z,4.22
2023-04-20T19:57:40.080Z,3.83
2023-04-20T20:00:08.805Z,3.50
2023-04-20T20:02:44.581Z,3.72
2023-04-20T20:05:11.476Z,4.38
2023-04-20T20:07:38.739Z,3.80
2023-04-20T20:10:06.428Z,4.43
2023-04-20T20:12:33.322Z,5.68
2023-04-20T20:15:00.382Z,4.07
2023-04-20T20:17:27.319Z,3.97
2023-04-20T20:19:55.690Z,3.90
2023-04-20T20:22:22.974Z,3.50
2023-04-20T20:24:51.946Z,3.80
2023-04-20T20:27:18.873Z,3.90
2023-04-20T20:29:45.767Z,5.72
2023-04-20T20:32:12.692Z,6.43
2023-04-20T20:34:39.510Z,4.47
2023-04-20T20:37:07.001Z,4.72
2023-04-20T20:39:33.841Z,5.60
2023-04-20T20:42:01.967Z,4.88
2023-04-20T20:44:32.770Z,4.80
2023-04-20T20:47:00.709Z,4.53
2023-04-20T20:49:27.945Z,4.28
2023-04-20T20:51:54.853Z,4.20
2023-04-20T20:54:21.789Z,4.35
2023-04-20T20:56:48.646Z,4.72
2023-04-20T20:59:15.522Z,4.68
2023-04-20T21:01:42.304Z,4.95
2023-04-20T21:04:09.304Z,4.78
2023-04-20T21:06:36.216Z,5.10
2023-04-20T21:09:03.178Z,5.72
2023-04-20T21:11:30.127Z,5.25
2023-04-20T21:14:01.612Z,4.68
2023-04-20T21:16:29.190Z,5.05
2023-04-20T21:18:56.066Z,4.75
2023-04-20T21:21:23.050Z,4.53
2023-04-20T21:23:50.520Z,5.68
2023-04-20T21:26:17.386Z,7.72
2023-04-20T21:28:44.278Z,7.85
2023-04-20T21:31:11.116Z,9.32
2023-04-20T21:33:38.089Z,8.30
2023-04-20T21:36:05.254Z,7.28
2023-04-20T21:38:32.189Z,8.85
2023-04-20T21:40:59.080Z,8.50
2023-04-20T21:43:25.897Z,7.32
2023-04-20T21:45:53.060Z,7.18
2023-04-20T21:48:19.949Z,7.70
2023-04-20T21:50:46.820Z,7.90
2023-04-20T21:53:13.652Z,7.50
2023-04-20T21:55:40.614Z,7.93
2023-04-20T21:58:07.450Z,7.90
2023-04-20T22:00:34.266Z,7.43
2023-04-20T22:03:01.239Z,7.95
2023-04-20T22:05:29.386Z,8.57
2023-04-20T22:07:59.570Z,8.35
2023-04-20T22:10:26.793Z,8.40
2023-04-20T22:12:53.581Z,7.22
2023-04-20T22:15:22.316Z,8.15
2023-04-20T22:17:49.404Z,7.70
2023-04-20T22:20:19.109Z,5.45
2023-04-20T22:22:46.815Z,6.68
2023-04-20T22:25:13.652Z,9.93
2023-04-20T22:27:40.670Z,6.13
2023-04-20T22:30:09.517Z,7.53
2023-04-20T22:32:37.599Z,8.05
2023-04-20T22:35:05.329Z,8.02
2023-04-20T22:37:32.185Z,8.00
2023-04-20T22:39:59.181Z,7.85
2023-04-20T22:42:26.124Z,7.90
2023-04-20T22:44:53.051Z,8.63
2023-04-20T22:47:19.908Z,7.93
2023-04-20T22:49:46.779Z,9.27
2023-04-20T22:52:13.681Z,11.05
2023-04-20T22:54:40.630Z,11.02
2023-04-20T22:57:07.458Z,10.73
2023-04-20T22:59:34.317Z,8.88
2023-04-20T23:02:01.312Z,10.73
2023-04-20T23:04:28.232Z,11.85
2023-04-20T23:06:56.425Z,11.50
2023-04-20T23:09:23.472Z,12.98
2023-04-20T23:11:50.854Z,12.50
2023-04-20T23:14:17.766Z,11.70
2023-04-20T23:16:44.645Z,11.75
2023-04-20T23:19:11.739Z,11.85
2023-04-20T23:21:38.588Z,9.75
2023-04-20T23:24:05.604Z,10.30
2023-04-20T23:26:32.407Z,10.68
2023-04-20T23:28:59.490Z,10.32
2023-04-20T23:31:26.349Z,9.32
2023-04-20T23:33:53.172Z,8.85
2023-04-20T23:36:20.041Z,9.95
2023-04-20T23:38:46.927Z,7.10
2023-04-20T23:41:15.098Z,6.28
2023-04-20T23:43:42.522Z,7.25
2023-04-20T23:46:09.566Z,8.52
2023-04-20T23:48:36.430Z,7.15
2023-04-20T23:51:03.455Z,6.93
2023-04-20T23:53:30.454Z,5.28
2023-04-20T23:55:57.256Z,7.85
2023-04-20T23:58:27.973Z,8.27
